Time,TemperatureF,DewpointF,PressureIn,WindDirection,WindDirectionDegrees,WindSpeedMPH,WindSpeedGustMPH,Humidity,HourlyPrecipIn,Conditions,Clouds,dailyrainin,SolarRadiationWatts/m^2,SoftwareType,DateUTC
2013-06-16 00:01:00,70.2,62.0,30.10,WSW,237,0.0,7.0,75,0.00,,,0.00,0,weatherlink.com 1.10,2013-06-16 04:01:00,
2013-06-16 00:16:00,70.1,61.0,30.10,SSE,161,1.0,5.0,73,0.00,,,0.00,0,weatherlink.com 1.10,2013-06-16 04:16:00,
2013-06-16 00:31:00,70.1,60.0,30.10,South,175,4.0,9.0,71,0.00,,,0.00,0,weatherlink.com 1.10,2013-06-16 04:31:00,
2013-06-16 00:46:00,70.1,60.0,30.11,SE,134,2.0,5.0,70,0.00,,,0.00,0,weatherlink.com 1.10,2013-06-16 04:46:00,
2013-06-16 01:01:00,69.9,59.0,30.11,West,267,0.0,4.0,68,0.00,,,0.00,0,weatherlink.com 1.10,2013-06-16 05:01:00,
2013-06-16 01:16:00,69.7,59.0,30.11,SSE,166,0.0,3.0,68,0.00,,,0.00,0,weatherlink.com 1.10,2013-06-16 05:16:00,
2013-06-16 01:31:00,69.4,59.0,30.12,SW,236,0.0,2.0,69,0.00,,,0.00,0,weatherlink.com 1.10,2013-06-16 05:31:00,
2013-06-16 01:46:00,69.0,58.0,30.11,SSE,166,0.0,3.0,69,0.00,,,0.00,0,weatherlink.com 1.10,2013-06-16 05:46:00,
2013-06-16 02:01:00,68.5,58.0,30.11,South,184,0.0,3.0,69,0.00,,,0.00,0,weatherlink.com 1.10,2013-06-16 06:01:00,
2013-06-16 02:16:00,68.2,58.0,30.10,SSE,163,0.0,3.0,70,0.00,,,0.00,0,weatherlink.com 1.10,2013-06-16 06:16:00,
2013-06-16 02:31:00,68.0,58.0,30.10,SW,225,0.0,3.0,70,0.00,,,0.00,0,weatherlink.com 1.10,2013-06-16 06:31:00,
2013-06-16 02:46:00,67.7,57.0,30.10,SSW,210,0.0,1.0,69,0.00,,,0.00,0,weatherlink.com 1.10,2013-06-16 06:46:00,
2013-06-16 03:01:00,67.6,57.0,30.10,SSW,209,0.0,2.0,68,0.00,,,0.00,0,weatherlink.com 1.10,2013-06-16 07:01:00,
2013-06-16 03:16:00,67.4,56.0,30.10,South,180,0.0,3.0,68,0.00,,,0.00,0,weatherlink.com 1.10,2013-06-16 07:16:00,
2013-06-16 03:31:00,67.3,56.0,30.10,SSE,162,2.0,4.0,67,0.00,,,0.00,0,weatherlink.com 1.10,2013-06-16 07:31:00,
2013-06-16 03:46:00,66.9,56.0,30.09,SSE,168,0.0,3.0,68,0.00,,,0.00,0,weatherlink.com 1.10,2013-06-16 07:46:00,
2013-06-16 04:01:00,66.6,57.0,30.09,South,171,0.0,3.0,72,0.00,,,0.00,0,weatherlink.com 1.10,2013-06-16 08:01:00,
2013-06-16 04:16:00,65.4,57.0,30.10,South,171,0.0,0.0,75,0.00,,,0.00,0,weatherlink.com 1.10,2013-06-16 08:16:00,
2013-06-16 04:31:00,64.2,57.0,30.10,South,171,0.0,0.0,78,0.00,,,0.00,0,weatherlink.com 1.10,2013-06-16 08:31:00,
2013-06-16 04:46:00,63.4,57.0,30.10,South,171,0.0,0.0,79,0.00,,,0.00,0,weatherlink.com 1.10,2013-06-16 08:46:00,
2013-06-16 05:01:00,62.8,57.0,30.10,South,171,0.0,0.0,81,0.00,,,0.00,0,weatherlink.com 1.10,2013-06-16 09:01:00,
2013-06-16 05:17:00,62.3,57.0,30.11,South,171,0.0,0.0,82,0.00,,,0.00,0,weatherlink.com 1.10,2013-06-16 09:17:00,
2013-06-16 05:32:00,61.9,57.0,30.11,South,171,0.0,0.0,85,0.00,,,0.00,0,weatherlink.com 1.10,2013-06-16 09:32:00,
2013-06-16 05:47:00,61.4,58.0,30.11,South,171,0.0,0.0,87,0.00,,,0.00,0,weatherlink.com 1.10,2013-06-16 09:47:00,
2013-06-16 06:02:00,61.1,57.0,30.12,South,171,0.0,0.0,87,0.00,,,0.00,0,weatherlink.com 1.10,2013-06-16 10:02:00,
2013-06-16 06:17:00,60.8,57.0,30.13,South,171,0.0,0.0,88,0.00,,,0.00,7,weatherlink.com 1.10,2013-06-16 10:17:00,
2013-06-16 06:32:00,60.7,58.0,30.12,South,171,0.0,0.0,90,0.00,,,0.00,14,weatherlink.com 1.10,2013-06-16 10:32:00,
2013-06-16 06:47:00,60.7,58.0,30.12,South,171,0.0,0.0,91,0.00,,,0.00,26,weatherlink.com 1.10,2013-06-16 10:47:00,
2013-06-16 07:02:00,61.4,59.0,30.13,South,171,0.0,0.0,90,0.00,,,0.00,47,weatherlink.com 1.10,2013-06-16 11:02:00,
2013-06-16 07:17:00,62.2,59.0,30.13,South,171,0.0,0.0,90,0.00,,,0.00,70,weatherlink.com 1.10,2013-06-16 11:17:00,
2013-06-16 07:32:00,63.9,60.0,30.14,SW,219,0.0,2.0,86,0.00,,,0.00,149,weatherlink.com 1.10,2013-06-16 11:32:00,
2013-06-16 07:47:00,66.2,60.0,30.14,SSW,211,0.0,4.0,80,0.00,,,0.00,234,weatherlink.com 1.10,2013-06-16 11:47:00,
2013-06-16 08:02:00,67.6,60.0,30.15,WSW,240,4.0,7.0,77,0.00,,,0.00,285,weatherlink.com 1.10,2013-06-16 12:02:00,
2013-06-16 08:17:00,68.7,61.0,30.14,WSW,242,0.0,8.0,76,0.00,,,0.00,306,weatherlink.com 1.10,2013-06-16 12:17:00,
2013-06-16 08:32:00,69.6,61.0,30.14,SW,226,2.0,9.0,74,0.00,,,0.00,378,weatherlink.com 1.10,2013-06-16 12:32:00,
2013-06-16 08:47:00,70.6,62.0,30.14,SSW,203,3.0,8.0,73,0.00,,,0.00,422,weatherlink.com 1.10,2013-06-16 12:47:00,
2013-06-16 09:02:00,71.8,62.0,30.14,WSW,258,1.0,11.0,71,0.00,,,0.00,374,weatherlink.com 1.10,2013-06-16 13:02:00,
2013-06-16 09:17:00,72.5,61.0,30.14,WSW,239,4.0,8.0,68,0.00,,,0.00,149,weatherlink.com 1.10,2013-06-16 13:17:00,
2013-06-16 09:32:00,74.1,62.0,30.14,SW,215,0.0,9.0,67,0.00,,,0.00,580,weatherlink.com 1.10,2013-06-16 13:32:00,
2013-06-16 09:47:00,74.8,64.0,30.14,WSW,255,7.0,10.0,69,0.00,,,0.00,613,weatherlink.com 1.10,2013-06-16 13:47:00,
2013-06-16 10:02:00,75.3,64.0,30.13,WSW,237,4.0,9.0,69,0.00,,,0.00,708,weatherlink.com 1.10,2013-06-16 14:02:00,
2013-06-16 10:18:00,76.0,66.0,30.12,SW,228,2.0,11.0,70,0.00,,,0.00,700,weatherlink.com 1.10,2013-06-16 14:18:00,
2013-06-16 10:33:00,77.0,67.0,30.12,NW,304,0.0,9.0,71,0.00,,,0.00,721,weatherlink.com 1.10,2013-06-16 14:33:00,
2013-06-16 10:48:00,77.7,67.0,30.11,WSW,238,0.0,11.0,69,0.00,,,0.00,761,weatherlink.com 1.10,2013-06-16 14:48:00,
2013-06-16 11:03:00,78.5,67.0,30.11,SW,235,6.0,12.0,67,0.00,,,0.00,826,weatherlink.com 1.10,2013-06-16 15:03:00,
2013-06-16 11:18:00,79.1,67.0,30.10,South,188,3.0,11.0,67,0.00,,,0.00,803,weatherlink.com 1.10,2013-06-16 15:18:00,
2013-06-16 11:33:00,79.6,68.0,30.10,SW,224,5.0,13.0,67,0.00,,,0.00,824,weatherlink.com 1.10,2013-06-16 15:33:00,
2013-06-16 11:48:00,80.8,68.0,30.10,West,275,4.0,12.0,65,0.00,,,0.00,886,weatherlink.com 1.10,2013-06-16 15:48:00,
2013-06-16 12:03:00,81.6,68.0,30.09,WSW,257,0.0,9.0,64,0.00,,,0.00,306,weatherlink.com 1.10,2013-06-16 16:03:00,
2013-06-16 12:18:00,82.2,67.0,30.09,SSW,205,3.0,11.0,61,0.00,,,0.00,911,weatherlink.com 1.10,2013-06-16 16:18:00,
2013-06-16 12:33:00,82.6,68.0,30.08,SW,216,2.0,10.0,61,0.00,,,0.00,904,weatherlink.com 1.10,2013-06-16 16:33:00,
2013-06-16 12:48:00,82.6,67.0,30.07,West,269,3.0,15.0,60,0.00,,,0.00,912,weatherlink.com 1.10,2013-06-16 16:48:00,
2013-06-16 13:03:00,83.2,68.0,30.07,East,101,2.0,11.0,61,0.00,,,0.00,921,weatherlink.com 1.10,2013-06-16 17:03:00,
2013-06-16 13:18:00,83.3,68.0,30.07,West,266,4.0,12.0,60,0.00,,,0.00,925,weatherlink.com 1.10,2013-06-16 17:18:00,
2013-06-16 13:33:00,83.5,67.0,30.06,SSW,213,1.0,12.0,58,0.00,,,0.00,911,weatherlink.com 1.10,2013-06-16 17:33:00,
2013-06-16 13:48:00,84.0,69.0,30.05,WSW,248,2.0,12.0,60,0.00,,,0.00,944,weatherlink.com 1.10,2013-06-16 17:48:00,
2013-06-16 14:03:00,84.2,69.0,30.05,West,275,1.0,11.0,61,0.00,,,0.00,962,weatherlink.com 1.10,2013-06-16 18:03:00,
2013-06-16 14:18:00,84.7,67.0,30.05,West,259,6.0,11.0,56,0.00,,,0.00,930,weatherlink.com 1.10,2013-06-16 18:18:00,
2013-06-16 14:33:00,84.4,69.0,30.05,WSW,239,3.0,11.0,61,0.00,,,0.00,919,weatherlink.com 1.10,2013-06-16 18:33:00,
2013-06-16 14:48:00,84.4,68.0,30.04,West,259,4.0,12.0,59,0.00,,,0.00,926,weatherlink.com 1.10,2013-06-16 18:48:00,
2013-06-16 15:03:00,85.3,68.0,30.04,WSW,257,2.0,12.0,57,0.00,,,0.00,865,weatherlink.com 1.10,2013-06-16 19:03:00,
2013-06-16 15:18:00,84.5,69.0,30.04,WSW,250,3.0,13.0,60,0.00,,,0.00,199,weatherlink.com 1.10,2013-06-16 19:18:00,
2013-06-16 15:33:00,84.4,69.0,30.04,WSW,247,1.0,11.0,61,0.00,,,0.00,775,weatherlink.com 1.10,2013-06-16 19:33:00,
2013-06-16 15:48:00,85.0,68.0,30.03,WSW,246,10.0,13.0,57,0.00,,,0.00,772,weatherlink.com 1.10,2013-06-16 19:48:00,
2013-06-16 16:04:00,85.4,70.0,30.03,WNW,289,3.0,12.0,60,0.00,,,0.00,735,weatherlink.com 1.10,2013-06-16 20:04:00,
2013-06-16 16:19:00,86.0,68.0,30.03,West,280,7.0,11.0,55,0.00,,,0.00,714,weatherlink.com 1.10,2013-06-16 20:19:00,
2013-06-16 16:34:00,86.0,68.0,30.02,WSW,251,5.0,11.0,55,0.00,,,0.00,666,weatherlink.com 1.10,2013-06-16 20:34:00,
2013-06-16 16:49:00,85.8,69.0,30.02,WSW,248,7.0,12.0,58,0.00,,,0.00,534,weatherlink.com 1.10,2013-06-16 20:49:00,
2013-06-16 17:04:00,86.1,69.0,30.02,WSW,242,2.0,10.0,57,0.00,,,0.00,564,weatherlink.com 1.10,2013-06-16 21:04:00,
2013-06-16 17:19:00,85.7,68.0,30.02,WSW,255,5.0,11.0,56,0.00,,,0.00,552,weatherlink.com 1.10,2013-06-16 21:19:00,
2013-06-16 17:34:00,85.1,68.0,30.02,SW,223,6.0,11.0,57,0.00,,,0.00,207,weatherlink.com 1.10,2013-06-16 21:34:00,
2013-06-16 17:49:00,83.9,68.0,30.02,WSW,238,3.0,8.0,60,0.00,,,0.00,301,weatherlink.com 1.10,2013-06-16 21:49:00,
2013-06-16 18:04:00,85.0,69.0,30.01,SW,236,0.0,10.0,59,0.00,,,0.00,424,weatherlink.com 1.10,2013-06-16 22:04:00,
2013-06-16 18:19:00,84.4,68.0,30.01,WSW,244,0.0,10.0,59,0.00,,,0.00,81,weatherlink.com 1.10,2013-06-16 22:19:00,
2013-06-16 18:34:00,83.9,70.0,30.01,WSW,257,4.0,5.0,63,0.00,,,0.00,183,weatherlink.com 1.10,2013-06-16 22:34:00,
2013-06-16 18:49:00,83.7,69.0,30.02,WSW,244,4.0,8.0,61,0.00,,,0.00,77,weatherlink.com 1.10,2013-06-16 22:49:00,
2013-06-16 19:04:00,83.0,69.0,30.02,WSW,254,0.0,9.0,63,0.00,,,0.00,60,weatherlink.com 1.10,2013-06-16 23:04:00,
2013-06-16 19:19:00,82.6,69.0,30.02,WSW,242,0.0,3.0,64,0.00,,,0.00,70,weatherlink.com 1.10,2013-06-16 23:19:00,
2013-06-16 19:34:00,82.2,68.0,30.02,WSW,252,0.0,4.0,63,0.00,,,0.00,40,weatherlink.com 1.10,2013-06-16 23:34:00,
2013-06-16 19:49:00,81.4,69.0,30.02,West,259,0.0,4.0,65,0.00,,,0.00,28,weatherlink.com 1.10,2013-06-16 23:49:00,
2013-06-16 20:04:00,80.5,71.0,30.02,West,259,0.0,1.0,72,0.00,,,0.00,16,weatherlink.com 1.10,2013-06-17 00:04:00,
2013-06-16 20:19:00,78.7,70.0,30.02,West,259,0.0,0.0,75,0.00,,,0.00,9,weatherlink.com 1.10,2013-06-17 00:19:00,
2013-06-16 20:34:00,76.9,70.0,30.02,West,259,0.0,0.0,78,0.00,,,0.00,0,weatherlink.com 1.10,2013-06-17 00:34:00,
2013-06-16 20:49:00,75.8,69.0,30.02,West,259,0.0,0.0,79,0.00,,,0.00,0,weatherlink.com 1.10,2013-06-17 00:49:00,
2013-06-16 21:04:00,74.9,69.0,30.02,West,259,0.0,0.0,81,0.00,,,0.00,0,weatherlink.com 1.10,2013-06-17 01:04:00,
2013-06-16 21:19:00,74.1,68.0,30.02,West,259,0.0,0.0,82,0.00,,,0.00,0,weatherlink.com 1.10,2013-06-17 01:19:00,
2013-06-16 21:34:00,73.6,69.0,30.02,West,259,0.0,0.0,84,0.00,,,0.00,0,weatherlink.com 1.10,2013-06-17 01:34:00,
2013-06-16 21:49:00,74.4,68.0,30.02,South,178,0.0,2.0,81,0.00,,,0.00,0,weatherlink.com 1.10,2013-06-17 01:49:00,
2013-06-16 22:04:00,75.0,68.0,30.03,SSW,200,0.0,4.0,80,0.00,,,0.00,0,weatherlink.com 1.10,2013-06-17 02:04:00,
2013-06-16 22:19:00,75.3,68.0,30.04,SSE,151,0.0,3.0,78,0.00,,,0.00,0,weatherlink.com 1.10,2013-06-17 02:19:00,
2013-06-16 22:34:00,74.8,69.0,30.04,SSE,151,2.0,2.0,81,0.00,,,0.00,0,weatherlink.com 1.10,2013-06-17 02:34:00,
2013-06-16 22:49:00,74.6,68.0,30.04,SSE,157,0.0,2.0,80,0.00,,,0.00,0,weatherlink.com 1.10,2013-06-17 02:49:00,
2013-06-16 23:04:00,75.0,68.0,30.04,SSE,153,2.0,5.0,78,0.00,,,0.00,0,weatherlink.com 1.10,2013-06-17 03:04:00,
2013-06-16 23:19:00,75.3,68.0,30.04,SE,126,2.0,6.0,77,0.00,,,0.00,0,weatherlink.com 1.10,2013-06-17 03:19:00,
2013-06-16 23:34:00,75.3,67.0,30.04,SSE,147,3.0,4.0,76,0.00,,,0.00,0,weatherlink.com 1.10,2013-06-17 03:34:00,
2013-06-16 23:49:00,74.9,67.0,30.05,WSW,251,4.0,4.0,77,0.00,,,0.00,0,weatherlink.com 1.10,2013-06-17 03:49:00,